Terminal Aerodrome Forecast
Issued by NWS

Home | Current Version | Previous Version | Text Only | Print | Product List | Glossary On
Versions: 1 2 3 4 5 6 7 8 9 10 11 12 13 14 15 16 17 18 19 20 21 22 23 24 25 26 27 28 29 30 31
315
FTUS46 KSEW 280723 AAA
TAFHQM
TAF AMD
KHQM 280723Z 2807/2906 24007KT P6SM OVC005
      TEMPO 2807/2811 6SM BR
     FM281800 20008KT P6SM OVC009
     FM282000 23015KT P6SM OVC012=

USA.gov is the U.S. government's official web portal to all federal, state and local government web resources and services.